sensor_id;sensor_type;location;lat;lon;timestamp;temperature;humidity
57709;SHT35;42558;52.388;13.390;2022-12-26T00:01:58;9.09;93.89
57709;SHT35;42558;52.388;13.390;2022-12-26T00:04:29;9.10;93.85
57709;SHT35;42558;52.388;13.390;2022-12-26T00:07:19;9.11;93.84
57709;SHT35;42558;52.388;13.390;2022-12-26T00:09:47;9.11;93.81
57709;SHT35;42558;52.388;13.390;2022-12-26T00:12:16;9.15;93.81
57709;SHT35;42558;52.388;13.390;2022-12-26T00:14:44;9.20;93.72
57709;SHT35;42558;52.388;13.390;2022-12-26T00:17:12;9.21;93.56
57709;SHT35;42558;52.388;13.390;2022-12-26T00:19:41;9.23;93.48
57709;SHT35;42558;52.388;13.390;2022-12-26T00:22:09;9.27;93.39
57709;SHT35;42558;52.388;13.390;2022-12-26T00:24:38;9.27;93.27
57709;SHT35;42558;52.388;13.390;2022-12-26T00:27:06;9.33;93.15
57709;SHT35;42558;52.388;13.390;2022-12-26T00:29:35;9.31;92.98
57709;SHT35;42558;52.388;13.390;2022-12-26T00:32:03;9.31;93.11
57709;SHT35;42558;52.388;13.390;2022-12-26T00:34:31;9.37;93.07
57709;SHT35;42558;52.388;13.390;2022-12-26T00:37:00;9.39;92.86
57709;SHT35;42558;52.388;13.390;2022-12-26T00:39:28;9.35;92.82
57709;SHT35;42558;52.388;13.390;2022-12-26T00:41:57;9.33;92.87
57709;SHT35;42558;52.388;13.390;2022-12-26T00:44:25;9.29;92.91
57709;SHT35;42558;52.388;13.390;2022-12-26T00:46:54;9.31;92.96
57709;SHT35;42558;52.388;13.390;2022-12-26T00:49:22;9.32;92.88
57709;SHT35;42558;52.388;13.390;2022-12-26T00:51:50;9.30;92.88
57709;SHT35;42558;52.388;13.390;2022-12-26T00:54:19;9.27;92.94
57709;SHT35;42558;52.388;13.390;2022-12-26T00:56:47;9.28;92.95
57709;SHT35;42558;52.388;13.390;2022-12-26T00:59:16;9.27;92.87
57709;SHT35;42558;52.388;13.390;2022-12-26T01:01:44;9.35;92.96
57709;SHT35;42558;52.388;13.390;2022-12-26T01:04:13;9.33;92.83
57709;SHT35;42558;52.388;13.390;2022-12-26T01:06:41;9.30;92.87
57709;SHT35;42558;52.388;13.390;2022-12-26T01:09:09;9.34;92.89
57709;SHT35;42558;52.388;13.390;2022-12-26T01:11:41;9.35;92.75
57709;SHT35;42558;52.388;13.390;2022-12-26T01:14:12;9.37;92.69
57709;SHT35;42558;52.388;13.390;2022-12-26T01:16:45;9.40;92.66
57709;SHT35;42558;52.388;13.390;2022-12-26T01:19:16;9.40;92.56
57709;SHT35;42558;52.388;13.390;2022-12-26T01:21:45;9.38;92.48
57709;SHT35;42558;52.388;13.390;2022-12-26T01:24:15;9.36;92.46
57709;SHT35;42558;52.388;13.390;2022-12-26T01:26:45;9.38;92.48
57709;SHT35;42558;52.388;13.390;2022-12-26T01:29:15;9.38;92.36
57709;SHT35;42558;52.388;13.390;2022-12-26T01:31:45;9.35;92.42
57709;SHT35;42558;52.388;13.390;2022-12-26T01:34:15;9.35;92.45
57709;SHT35;42558;52.388;13.390;2022-12-26T01:36:44;9.36;92.47
57709;SHT35;42558;52.388;13.390;2022-12-26T01:39:14;9.33;92.40
57709;SHT35;42558;52.388;13.390;2022-12-26T01:41:44;9.33;92.44
57709;SHT35;42558;52.388;13.390;2022-12-26T01:51:01;9.44;92.03
57709;SHT35;42558;52.388;13.390;2022-12-26T01:53:35;9.41;92.05
57709;SHT35;42558;52.388;13.390;2022-12-26T01:56:09;9.36;91.95
57709;SHT35;42558;52.388;13.390;2022-12-26T01:58:48;9.35;92.12
57709;SHT35;42558;52.388;13.390;2022-12-26T02:01:26;9.34;92.21
57709;SHT35;42558;52.388;13.390;2022-12-26T02:04:01;9.35;92.26
57709;SHT35;42558;52.388;13.390;2022-12-26T02:06:53;9.40;92.27
57709;SHT35;42558;52.388;13.390;2022-12-26T02:09:21;9.45;92.05
57709;SHT35;42558;52.388;13.390;2022-12-26T02:11:51;9.45;91.92
57709;SHT35;42558;52.388;13.390;2022-12-26T02:14:50;9.46;91.77
57709;SHT35;42558;52.388;13.390;2022-12-26T02:17:20;9.49;91.71
57709;SHT35;42558;52.388;13.390;2022-12-26T02:20:02;9.55;91.48
57709;SHT35;42558;52.388;13.390;2022-12-26T02:40:45;9.64;91.00
57709;SHT35;42558;52.388;13.390;2022-12-26T02:47:15;9.62;91.21
57709;SHT35;42558;52.388;13.390;2022-12-26T02:56:42;9.75;90.66
57709;SHT35;42558;52.388;13.390;2022-12-26T02:59:45;9.74;90.78
57709;SHT35;42558;52.388;13.390;2022-12-26T03:02:56;9.72;90.75
57709;SHT35;42558;52.388;13.390;2022-12-26T03:05:59;9.73;90.87
57709;SHT35;42558;52.388;13.390;2022-12-26T03:09:01;9.76;90.85
57709;SHT35;42558;52.388;13.390;2022-12-26T03:12:00;9.76;90.71
57709;SHT35;42558;52.388;13.390;2022-12-26T03:14:57;9.74;90.90
57709;SHT35;42558;52.388;13.390;2022-12-26T03:17:38;9.77;90.82
57709;SHT35;42558;52.388;13.390;2022-12-26T03:20:13;9.80;90.62
57709;SHT35;42558;52.388;13.390;2022-12-26T03:23:06;9.83;90.45
57709;SHT35;42558;52.388;13.390;2022-12-26T03:28:46;9.79;90.68
57709;SHT35;42558;52.388;13.390;2022-12-26T03:31:16;9.81;90.57
57709;SHT35;42558;52.388;13.390;2022-12-26T03:33:47;9.83;90.50
57709;SHT35;42558;52.388;13.390;2022-12-26T03:50:47;9.82;90.51
57709;SHT35;42558;52.388;13.390;2022-12-26T03:53:36;9.89;90.51
57709;SHT35;42558;52.388;13.390;2022-12-26T03:56:39;9.87;90.25
57709;SHT35;42558;52.388;13.390;2022-12-26T04:02:45;10.02;89.89
57709;SHT35;42558;52.388;13.390;2022-12-26T04:05:39;9.98;90.04
57709;SHT35;42558;52.388;13.390;2022-12-26T04:08:42;9.97;90.16
57709;SHT35;42558;52.388;13.390;2022-12-26T04:11:47;10.00;90.14
57709;SHT35;42558;52.388;13.390;2022-12-26T04:14:40;10.01;89.99
57709;SHT35;42558;52.388;13.390;2022-12-26T04:24:02;10.00;90.13
57709;SHT35;42558;52.388;13.390;2022-12-26T04:27:15;10.01;90.13
57709;SHT35;42558;52.388;13.390;2022-12-26T04:30:08;10.04;89.91
57709;SHT35;42558;52.388;13.390;2022-12-26T04:33:00;10.00;89.96
57709;SHT35;42558;52.388;13.390;2022-12-26T04:36:00;10.01;90.20
57709;SHT35;42558;52.388;13.390;2022-12-26T04:39:01;10.00;90.10
57709;SHT35;42558;52.388;13.390;2022-12-26T04:41:56;10.00;90.22
57709;SHT35;42558;52.388;13.390;2022-12-26T04:44:47;10.03;90.08
57709;SHT35;42558;52.388;13.390;2022-12-26T04:47:18;10.01;90.00
57709;SHT35;42558;52.388;13.390;2022-12-26T04:49:49;10.04;90.05
57709;SHT35;42558;52.388;13.390;2022-12-26T04:52:38;10.03;89.97
57709;SHT35;42558;52.388;13.390;2022-12-26T04:55:30;9.97;90.05
57709;SHT35;42558;52.388;13.390;2022-12-26T04:58:03;9.97;90.11
57709;SHT35;42558;52.388;13.390;2022-12-26T05:00:33;9.94;90.19
57709;SHT35;42558;52.388;13.390;2022-12-26T05:03:03;9.97;90.39
57709;SHT35;42558;52.388;13.390;2022-12-26T05:05:52;9.95;90.13
57709;SHT35;42558;52.388;13.390;2022-12-26T05:08:42;9.95;90.13
57709;SHT35;42558;52.388;13.390;2022-12-26T05:11:33;9.99;90.37
57709;SHT35;42558;52.388;13.390;2022-12-26T05:14:03;9.97;90.11
57709;SHT35;42558;52.388;13.390;2022-12-26T05:16:33;9.98;90.16
57709;SHT35;42558;52.388;13.390;2022-12-26T05:19:21;9.99;90.19
57709;SHT35;42558;52.388;13.390;2022-12-26T05:22:08;10.09;89.97
57709;SHT35;42558;52.388;13.390;2022-12-26T05:24:58;10.10;89.62
57709;SHT35;42558;52.388;13.390;2022-12-26T05:27:47;10.08;89.70
57709;SHT35;42558;52.388;13.390;2022-12-26T05:30:35;10.14;89.71
57709;SHT35;42558;52.388;13.390;2022-12-26T05:33:05;10.14;89.54
57709;SHT35;42558;52.388;13.390;2022-12-26T05:35:51;10.17;89.60
57709;SHT35;42558;52.388;13.390;2022-12-26T05:38:20;10.20;89.28
57709;SHT35;42558;52.388;13.390;2022-12-26T05:40:48;10.21;89.20
57709;SHT35;42558;52.388;13.390;2022-12-26T05:43:17;10.21;89.06
57709;SHT35;42558;52.388;13.390;2022-12-26T05:45:45;10.18;89.27
57709;SHT35;42558;52.388;13.390;2022-12-26T05:48:14;10.27;89.25
57709;SHT35;42558;52.388;13.390;2022-12-26T05:50:42;10.30;88.93
57709;SHT35;42558;52.388;13.390;2022-12-26T05:53:10;10.29;88.88
57709;SHT35;42558;52.388;13.390;2022-12-26T05:55:39;10.31;88.89
57709;SHT35;42558;52.388;13.390;2022-12-26T05:58:07;10.35;88.65
57709;SHT35;42558;52.388;13.390;2022-12-26T06:00:36;10.39;88.46
57709;SHT35;42558;52.388;13.390;2022-12-26T06:03:04;10.40;88.36
57709;SHT35;42558;52.388;13.390;2022-12-26T06:05:32;10.40;88.29
57709;SHT35;42558;52.388;13.390;2022-12-26T06:08:01;10.42;88.21
57709;SHT35;42558;52.388;13.390;2022-12-26T06:10:29;10.40;88.06
57709;SHT35;42558;52.388;13.390;2022-12-26T06:12:58;10.33;88.16
57709;SHT35;42558;52.388;13.390;2022-12-26T06:15:29;10.28;88.36
57709;SHT35;42558;52.388;13.390;2022-12-26T06:17:59;10.32;88.58
57709;SHT35;42558;52.388;13.390;2022-12-26T06:20:29;10.31;88.44
57709;SHT35;42558;52.388;13.390;2022-12-26T06:22:59;10.35;88.39
57709;SHT35;42558;52.388;13.390;2022-12-26T06:25:28;10.35;88.17
57709;SHT35;42558;52.388;13.390;2022-12-26T06:27:58;10.32;88.32
57709;SHT35;42558;52.388;13.390;2022-12-26T06:30:27;10.30;88.42
57709;SHT35;42558;52.388;13.390;2022-12-26T06:32:55;10.29;88.35
57709;SHT35;42558;52.388;13.390;2022-12-26T06:35:24;10.25;88.50
57709;SHT35;42558;52.388;13.390;2022-12-26T06:37:52;10.23;88.59
57709;SHT35;42558;52.388;13.390;2022-12-26T06:40:20;10.18;88.78
57709;SHT35;42558;52.388;13.390;2022-12-26T06:42:49;10.16;88.90
57709;SHT35;42558;52.388;13.390;2022-12-26T06:45:17;10.14;89.03
57709;SHT35;42558;52.388;13.390;2022-12-26T06:47:46;10.19;89.01
57709;SHT35;42558;52.388;13.390;2022-12-26T06:50:14;10.20;88.72
57709;SHT35;42558;52.388;13.390;2022-12-26T06:52:42;10.15;88.74
57709;SHT35;42558;52.388;13.390;2022-12-26T06:55:11;10.15;88.91
57709;SHT35;42558;52.388;13.390;2022-12-26T06:57:39;10.13;88.82
57709;SHT35;42558;52.388;13.390;2022-12-26T07:00:08;10.13;88.81
57709;SHT35;42558;52.388;13.390;2022-12-26T07:02:36;10.08;88.76
57709;SHT35;42558;52.388;13.390;2022-12-26T07:05:05;10.16;88.85
57709;SHT35;42558;52.388;13.390;2022-12-26T07:07:33;10.25;88.60
57709;SHT35;42558;52.388;13.390;2022-12-26T07:10:01;10.31;88.12
57709;SHT35;42558;52.388;13.390;2022-12-26T07:12:30;10.28;88.05
57709;SHT35;42558;52.388;13.390;2022-12-26T07:15:01;10.27;88.20
57709;SHT35;42558;52.388;13.390;2022-12-26T07:17:30;10.31;88.05
57709;SHT35;42558;52.388;13.390;2022-12-26T07:19:58;10.39;87.79
57709;SHT35;42558;52.388;13.390;2022-12-26T07:22:27;10.42;87.79
57709;SHT35;42558;52.388;13.390;2022-12-26T07:24:55;10.44;87.50
57709;SHT35;42558;52.388;13.390;2022-12-26T07:27:23;10.37;87.67
57709;SHT35;42558;52.388;13.390;2022-12-26T07:29:52;10.35;87.89
57709;SHT35;42558;52.388;13.390;2022-12-26T07:32:20;10.30;88.21
57709;SHT35;42558;52.388;13.390;2022-12-26T07:34:49;10.29;88.34
57709;SHT35;42558;52.388;13.390;2022-12-26T07:37:17;10.33;88.35
57709;SHT35;42558;52.388;13.390;2022-12-26T07:39:46;10.33;88.23
57709;SHT35;42558;52.388;13.390;2022-12-26T07:42:18;10.38;88.21
57709;SHT35;42558;52.388;13.390;2022-12-26T07:44:49;10.43;88.04
57709;SHT35;42558;52.388;13.390;2022-12-26T07:47:18;10.46;87.91
57709;SHT35;42558;52.388;13.390;2022-12-26T07:49:48;10.43;87.88
57709;SHT35;42558;52.388;13.390;2022-12-26T07:52:18;10.38;88.00
57709;SHT35;42558;52.388;13.390;2022-12-26T07:54:48;10.38;88.13
57709;SHT35;42558;52.388;13.390;2022-12-26T07:57:18;10.38;88.25
57709;SHT35;42558;52.388;13.390;2022-12-26T08:00:08;10.43;88.20
57709;SHT35;42558;52.388;13.390;2022-12-26T08:02:39;10.41;88.16
57709;SHT35;42558;52.388;13.390;2022-12-26T08:05:10;10.41;88.27
57709;SHT35;42558;52.388;13.390;2022-12-26T08:07:39;10.43;88.41
57709;SHT35;42558;52.388;13.390;2022-12-26T08:10:09;10.46;88.34
57709;SHT35;42558;52.388;13.390;2022-12-26T08:12:39;10.48;88.26
57709;SHT35;42558;52.388;13.390;2022-12-26T08:15:12;10.50;88.15
57709;SHT35;42558;52.388;13.390;2022-12-26T08:17:40;10.48;88.22
57709;SHT35;42558;52.388;13.390;2022-12-26T08:20:09;10.43;88.63
57709;SHT35;42558;52.388;13.390;2022-12-26T08:22:37;10.44;88.84
57709;SHT35;42558;52.388;13.390;2022-12-26T08:25:06;10.49;88.92
57709;SHT35;42558;52.388;13.390;2022-12-26T08:27:34;10.45;89.04
57709;SHT35;42558;52.388;13.390;2022-12-26T08:30:03;10.41;89.21
57709;SHT35;42558;52.388;13.390;2022-12-26T08:32:32;10.43;89.41
57709;SHT35;42558;52.388;13.390;2022-12-26T08:34:59;10.42;89.34
57709;SHT35;42558;52.388;13.390;2022-12-26T08:37:28;10.41;89.35
57709;SHT35;42558;52.388;13.390;2022-12-26T08:39:56;10.39;89.48
57709;SHT35;42558;52.388;13.390;2022-12-26T08:42:25;10.41;89.51
57709;SHT35;42558;52.388;13.390;2022-12-26T08:44:53;10.44;89.44
57709;SHT35;42558;52.388;13.390;2022-12-26T08:47:22;10.44;89.24
57709;SHT35;42558;52.388;13.390;2022-12-26T08:49:54;10.40;89.40
57709;SHT35;42558;52.388;13.390;2022-12-26T08:52:24;10.41;89.57
57709;SHT35;42558;52.388;13.390;2022-12-26T08:54:54;10.38;89.67
57709;SHT35;42558;52.388;13.390;2022-12-26T08:57:24;10.38;89.80
57709;SHT35;42558;52.388;13.390;2022-12-26T08:59:54;10.41;89.85
57709;SHT35;42558;52.388;13.390;2022-12-26T09:02:24;10.42;89.87
57709;SHT35;42558;52.388;13.390;2022-12-26T09:04:54;10.45;89.80
57709;SHT35;42558;52.388;13.390;2022-12-26T09:07:24;10.46;89.76
57709;SHT35;42558;52.388;13.390;2022-12-26T09:09:54;10.49;89.69
57709;SHT35;42558;52.388;13.390;2022-12-26T09:12:24;10.53;89.68
57709;SHT35;42558;52.388;13.390;2022-12-26T09:14:55;10.51;89.43
57709;SHT35;42558;52.388;13.390;2022-12-26T09:17:24;10.49;89.69
57709;SHT35;42558;52.388;13.390;2022-12-26T09:19:56;10.48;89.70
57709;SHT35;42558;52.388;13.390;2022-12-26T09:22:24;10.48;89.93
57709;SHT35;42558;52.388;13.390;2022-12-26T09:25:18;10.44;90.00
57709;SHT35;42558;52.388;13.390;2022-12-26T09:27:51;10.49;90.20
57709;SHT35;42558;52.388;13.390;2022-12-26T09:30:27;10.54;90.08
57709;SHT35;42558;52.388;13.390;2022-12-26T09:32:57;10.51;90.13
57709;SHT35;42558;52.388;13.390;2022-12-26T09:35:27;10.51;90.23
57709;SHT35;42558;52.388;13.390;2022-12-26T09:37:57;10.53;90.40
57709;SHT35;42558;52.388;13.390;2022-12-26T09:40:27;10.59;90.33
57709;SHT35;42558;52.388;13.390;2022-12-26T09:43:25;10.61;90.13
57709;SHT35;42558;52.388;13.390;2022-12-26T09:46:15;10.63;90.10
57709;SHT35;42558;52.388;13.390;2022-12-26T09:51:43;10.66;90.25
57709;SHT35;42558;52.388;13.390;2022-12-26T09:54:41;10.66;90.17
57709;SHT35;42558;52.388;13.390;2022-12-26T09:57:17;10.72;90.04
57709;SHT35;42558;52.388;13.390;2022-12-26T10:00:01;10.74;89.98
57709;SHT35;42558;52.388;13.390;2022-12-26T10:02:34;10.74;89.79
57709;SHT35;42558;52.388;13.390;2022-12-26T10:05:04;10.75;89.66
57709;SHT35;42558;52.388;13.390;2022-12-26T10:07:38;10.85;89.62
57709;SHT35;42558;52.388;13.390;2022-12-26T10:10:25;10.89;89.19
57709;SHT35;42558;52.388;13.390;2022-12-26T10:13:11;10.89;88.99
57709;SHT35;42558;52.388;13.390;2022-12-26T10:15:52;10.91;88.68
57709;SHT35;42558;52.388;13.390;2022-12-26T10:18:41;10.90;88.76
57709;SHT35;42558;52.388;13.390;2022-12-26T10:24:23;10.98;88.33
57709;SHT35;42558;52.388;13.390;2022-12-26T10:27:00;10.98;88.30
57709;SHT35;42558;52.388;13.390;2022-12-26T10:29:52;10.99;88.40
57709;SHT35;42558;52.388;13.390;2022-12-26T10:32:35;10.98;87.86
57709;SHT35;42558;52.388;13.390;2022-12-26T10:35:23;10.89;88.06
57709;SHT35;42558;52.388;13.390;2022-12-26T10:41:15;10.90;88.10
57709;SHT35;42558;52.388;13.390;2022-12-26T10:43:53;10.92;87.80
57709;SHT35;42558;52.388;13.390;2022-12-26T10:49:32;10.89;87.22
57709;SHT35;42558;52.388;13.390;2022-12-26T10:52:02;10.87;87.23
57709;SHT35;42558;52.388;13.390;2022-12-26T10:54:33;10.86;87.14
57709;SHT35;42558;52.388;13.390;2022-12-26T10:57:03;10.81;87.28
57709;SHT35;42558;52.388;13.390;2022-12-26T11:04:59;10.85;87.12
57709;SHT35;42558;52.388;13.390;2022-12-26T11:08:15;10.83;86.91
57709;SHT35;42558;52.388;13.390;2022-12-26T11:11:13;10.79;86.84
57709;SHT35;42558;52.388;13.390;2022-12-26T11:14:39;10.76;87.10
57709;SHT35;42558;52.388;13.390;2022-12-26T11:17:26;10.67;87.65
57709;SHT35;42558;52.388;13.390;2022-12-26T11:22:44;10.67;87.94
57709;SHT35;42558;52.388;13.390;2022-12-26T11:25:16;10.67;87.92
57709;SHT35;42558;52.388;13.390;2022-12-26T11:27:56;10.66;87.87
57709;SHT35;42558;52.388;13.390;2022-12-26T11:30:30;10.66;87.90
57709;SHT35;42558;52.388;13.390;2022-12-26T11:35:54;10.63;87.76
57709;SHT35;42558;52.388;13.390;2022-12-26T11:41:32;10.64;88.02
57709;SHT35;42558;52.388;13.390;2022-12-26T11:46:52;10.60;88.11
57709;SHT35;42558;52.388;13.390;2022-12-26T11:49:31;10.63;88.25
57709;SHT35;42558;52.388;13.390;2022-12-26T12:09:30;10.58;89.33
57709;SHT35;42558;52.388;13.390;2022-12-26T12:12:21;10.60;89.24
57709;SHT35;42558;52.388;13.390;2022-12-26T12:18:00;10.57;88.77
57709;SHT35;42558;52.388;13.390;2022-12-26T12:26:18;10.49;89.06
57709;SHT35;42558;52.388;13.390;2022-12-26T12:29:34;10.49;89.15
57709;SHT35;42558;52.388;13.390;2022-12-26T12:32:23;10.47;89.17
57709;SHT35;42558;52.388;13.390;2022-12-26T12:41:29;10.38;89.41
57709;SHT35;42558;52.388;13.390;2022-12-26T12:44:04;10.36;89.26
57709;SHT35;42558;52.388;13.390;2022-12-26T12:49:59;10.42;89.00
57709;SHT35;42558;52.388;13.390;2022-12-26T13:01:34;10.27;89.19
57709;SHT35;42558;52.388;13.390;2022-12-26T13:04:19;10.33;89.22
57709;SHT35;42558;52.388;13.390;2022-12-26T13:07:44;10.28;89.08
57709;SHT35;42558;52.388;13.390;2022-12-26T13:10:01;10.33;89.10
57709;SHT35;42558;52.388;13.390;2022-12-26T13:12:41;10.33;88.75
57709;SHT35;42558;52.388;13.390;2022-12-26T13:15:25;10.37;88.67
57709;SHT35;42558;52.388;13.390;2022-12-26T13:18:16;10.37;88.50
57709;SHT35;42558;52.388;13.390;2022-12-26T13:21:04;10.32;88.64
57709;SHT35;42558;52.388;13.390;2022-12-26T13:26:47;10.29;88.64
57709;SHT35;42558;52.388;13.390;2022-12-26T13:29:45;10.29;88.60
57709;SHT35;42558;52.388;13.390;2022-12-26T13:32:24;10.28;88.61
57709;SHT35;42558;52.388;13.390;2022-12-26T13:35:00;10.30;88.53
57709;SHT35;42558;52.388;13.390;2022-12-26T13:40:02;10.33;88.27
57709;SHT35;42558;52.388;13.390;2022-12-26T13:50:49;10.00;88.88
57709;SHT35;42558;52.388;13.390;2022-12-26T13:55:53;10.06;88.84
57709;SHT35;42558;52.388;13.390;2022-12-26T14:16:43;9.79;88.25
57709;SHT35;42558;52.388;13.390;2022-12-26T14:29:47;9.59;88.49
57709;SHT35;42558;52.388;13.390;2022-12-26T14:35:34;9.61;88.43
57709;SHT35;42558;52.388;13.390;2022-12-26T14:41:20;9.55;88.08
57709;SHT35;42558;52.388;13.390;2022-12-26T14:44:39;9.43;88.01
57709;SHT35;42558;52.388;13.390;2022-12-26T14:47:08;9.35;88.51
57709;SHT35;42558;52.388;13.390;2022-12-26T14:49:39;9.39;88.52
57709;SHT35;42558;52.388;13.390;2022-12-26T14:54:52;9.19;88.56
57709;SHT35;42558;52.388;13.390;2022-12-26T14:57:43;9.20;88.86
57709;SHT35;42558;52.388;13.390;2022-12-26T15:05:27;9.16;88.96
57709;SHT35;42558;52.388;13.390;2022-12-26T15:08:19;9.19;89.01
57709;SHT35;42558;52.388;13.390;2022-12-26T15:11:58;9.21;89.30
57709;SHT35;42558;52.388;13.390;2022-12-26T15:20:57;9.20;90.12
57709;SHT35;42558;52.388;13.390;2022-12-26T15:24:26;9.20;90.25
57709;SHT35;42558;52.388;13.390;2022-12-26T15:28:03;9.23;90.41
57709;SHT35;42558;52.388;13.390;2022-12-26T15:45:25;9.16;90.49
57709;SHT35;42558;52.388;13.390;2022-12-26T15:51:13;9.15;90.43
57709;SHT35;42558;52.388;13.390;2022-12-26T16:00:07;9.10;90.30
57709;SHT35;42558;52.388;13.390;2022-12-26T16:11:54;8.92;90.16
57709;SHT35;42558;52.388;13.390;2022-12-26T16:19:47;9.17;88.84
57709;SHT35;42558;52.388;13.390;2022-12-26T16:25:16;9.24;88.27
57709;SHT35;42558;52.388;13.390;2022-12-26T16:27:55;9.31;87.81
57709;SHT35;42558;52.388;13.390;2022-12-26T16:30:29;9.32;87.73
57709;SHT35;42558;52.388;13.390;2022-12-26T16:33:06;9.30;87.52
57709;SHT35;42558;52.388;13.390;2022-12-26T16:35:37;9.27;87.46
57709;SHT35;42558;52.388;13.390;2022-12-26T16:38:14;9.25;87.35
57709;SHT35;42558;52.388;13.390;2022-12-26T16:40:50;9.22;87.37
57709;SHT35;42558;52.388;13.390;2022-12-26T16:43:23;9.25;87.38
57709;SHT35;42558;52.388;13.390;2022-12-26T16:46:00;9.30;87.13
57709;SHT35;42558;52.388;13.390;2022-12-26T16:48:34;9.29;86.98
57709;SHT35;42558;52.388;13.390;2022-12-26T16:51:06;9.26;87.17
57709;SHT35;42558;52.388;13.390;2022-12-26T16:54:15;9.29;86.96
57709;SHT35;42558;52.388;13.390;2022-12-26T16:56:49;9.37;86.58
57709;SHT35;42558;52.388;13.390;2022-12-26T16:59:35;9.42;86.38
57709;SHT35;42558;52.388;13.390;2022-12-26T17:02:17;9.44;86.30
57709;SHT35;42558;52.388;13.390;2022-12-26T17:05:01;9.50;86.07
57709;SHT35;42558;52.388;13.390;2022-12-26T17:07:37;9.44;86.18
57709;SHT35;42558;52.388;13.390;2022-12-26T17:10:45;9.52;85.90
57709;SHT35;42558;52.388;13.390;2022-12-26T17:13:06;9.56;85.73
57709;SHT35;42558;52.388;13.390;2022-12-26T17:15:39;9.54;85.72
57709;SHT35;42558;52.388;13.390;2022-12-26T17:18:29;9.47;86.11
57709;SHT35;42558;52.388;13.390;2022-12-26T17:26:42;9.37;86.82
57709;SHT35;42558;52.388;13.390;2022-12-26T17:32:26;9.33;86.87
57709;SHT35;42558;52.388;13.390;2022-12-26T17:35:02;9.27;87.13
57709;SHT35;42558;52.388;13.390;2022-12-26T17:37:41;9.23;86.94
57709;SHT35;42558;52.388;13.390;2022-12-26T17:42:51;9.09;87.04
57709;SHT35;42558;52.388;13.390;2022-12-26T17:45:32;9.11;86.63
57709;SHT35;42558;52.388;13.390;2022-12-26T17:48:01;9.09;86.46
57709;SHT35;42558;52.388;13.390;2022-12-26T17:50:30;9.03;86.39
57709;SHT35;42558;52.388;13.390;2022-12-26T17:56:19;8.90;86.30
57709;SHT35;42558;52.388;13.390;2022-12-26T17:58:53;8.78;86.37
57709;SHT35;42558;52.388;13.390;2022-12-26T18:01:21;8.75;86.22
57709;SHT35;42558;52.388;13.390;2022-12-26T18:03:50;8.79;85.53
57709;SHT35;42558;52.388;13.390;2022-12-26T18:06:18;8.72;85.42
57709;SHT35;42558;52.388;13.390;2022-12-26T18:08:49;8.67;85.37
57709;SHT35;42558;52.388;13.390;2022-12-26T18:11:18;8.58;85.60
57709;SHT35;42558;52.388;13.390;2022-12-26T18:13:46;8.57;85.38
57709;SHT35;42558;52.388;13.390;2022-12-26T18:16:18;8.66;84.78
57709;SHT35;42558;52.388;13.390;2022-12-26T18:18:50;8.66;84.59
57709;SHT35;42558;52.388;13.390;2022-12-26T18:21:17;8.65;84.65
57709;SHT35;42558;52.388;13.390;2022-12-26T18:23:47;8.63;85.04
57709;SHT35;42558;52.388;13.390;2022-12-26T18:26:23;8.55;85.83
57709;SHT35;42558;52.388;13.390;2022-12-26T18:28:57;8.42;86.55
57709;SHT35;42558;52.388;13.390;2022-12-26T18:31:27;8.33;86.73
57709;SHT35;42558;52.388;13.390;2022-12-26T18:33:57;8.33;86.51
57709;SHT35;42558;52.388;13.390;2022-12-26T18:36:37;8.34;85.89
57709;SHT35;42558;52.388;13.390;2022-12-26T18:39:12;8.36;85.65
57709;SHT35;42558;52.388;13.390;2022-12-26T18:41:43;8.29;85.84
57709;SHT35;42558;52.388;13.390;2022-12-26T18:44:14;8.30;85.71
57709;SHT35;42558;52.388;13.390;2022-12-26T18:46:44;8.21;85.85
57709;SHT35;42558;52.388;13.390;2022-12-26T18:49:15;8.17;85.77
57709;SHT35;42558;52.388;13.390;2022-12-26T18:51:46;8.15;85.46
57709;SHT35;42558;52.388;13.390;2022-12-26T18:54:16;8.09;85.62
57709;SHT35;42558;52.388;13.390;2022-12-26T18:56:46;8.09;85.12
57709;SHT35;42558;52.388;13.390;2022-12-26T18:59:16;8.11;84.63
57709;SHT35;42558;52.388;13.390;2022-12-26T19:01:44;7.99;85.00
57709;SHT35;42558;52.388;13.390;2022-12-26T19:04:13;7.94;84.84
57709;SHT35;42558;52.388;13.390;2022-12-26T19:06:44;7.91;84.54
57709;SHT35;42558;52.388;13.390;2022-12-26T19:09:12;7.95;84.11
57709;SHT35;42558;52.388;13.390;2022-12-26T19:11:43;7.89;84.12
57709;SHT35;42558;52.388;13.390;2022-12-26T19:14:19;7.83;84.29
57709;SHT35;42558;52.388;13.390;2022-12-26T19:16:50;7.82;84.22
57709;SHT35;42558;52.388;13.390;2022-12-26T19:19:20;7.85;84.12
57709;SHT35;42558;52.388;13.390;2022-12-26T19:21:50;7.86;84.05
57709;SHT35;42558;52.388;13.390;2022-12-26T19:24:19;7.85;84.35
57709;SHT35;42558;52.388;13.390;2022-12-26T19:26:49;7.84;84.56
57709;SHT35;42558;52.388;13.390;2022-12-26T19:29:19;7.83;84.44
57709;SHT35;42558;52.388;13.390;2022-12-26T19:31:49;7.83;84.29
57709;SHT35;42558;52.388;13.390;2022-12-26T19:34:19;7.75;84.40
57709;SHT35;42558;52.388;13.390;2022-12-26T19:36:51;7.72;83.40
57709;SHT35;42558;52.388;13.390;2022-12-26T19:39:21;7.74;82.06
57709;SHT35;42558;52.388;13.390;2022-12-26T19:41:52;7.65;81.43
57709;SHT35;42558;52.388;13.390;2022-12-26T19:44:21;7.56;81.56
57709;SHT35;42558;52.388;13.390;2022-12-26T19:46:51;7.46;81.44
57709;SHT35;42558;52.388;13.390;2022-12-26T19:49:41;7.39;81.64
57709;SHT35;42558;52.388;13.390;2022-12-26T19:52:11;7.41;81.07
57709;SHT35;42558;52.388;13.390;2022-12-26T19:54:42;7.33;81.67
57709;SHT35;42558;52.388;13.390;2022-12-26T19:57:11;7.22;81.51
57709;SHT35;42558;52.388;13.390;2022-12-26T19:59:41;7.16;80.97
57709;SHT35;42558;52.388;13.390;2022-12-26T20:02:13;7.10;81.00
57709;SHT35;42558;52.388;13.390;2022-12-26T20:04:41;7.05;80.88
57709;SHT35;42558;52.388;13.390;2022-12-26T20:07:10;7.03;80.98
57709;SHT35;42558;52.388;13.390;2022-12-26T20:09:38;6.97;80.71
57709;SHT35;42558;52.388;13.390;2022-12-26T20:12:07;6.95;80.31
57709;SHT35;42558;52.388;13.390;2022-12-26T20:14:42;6.87;80.17
57709;SHT35;42558;52.388;13.390;2022-12-26T20:17:12;6.86;79.99
57709;SHT35;42558;52.388;13.390;2022-12-26T20:19:42;6.82;80.04
57709;SHT35;42558;52.388;13.390;2022-12-26T20:22:12;6.75;80.39
57709;SHT35;42558;52.388;13.390;2022-12-26T20:24:42;6.69;80.73
57709;SHT35;42558;52.388;13.390;2022-12-26T20:27:12;6.63;80.78
57709;SHT35;42558;52.388;13.390;2022-12-26T20:29:44;6.65;80.37
57709;SHT35;42558;52.388;13.390;2022-12-26T20:32:13;6.62;80.48
57709;SHT35;42558;52.388;13.390;2022-12-26T20:34:43;6.62;80.31
57709;SHT35;42558;52.388;13.390;2022-12-26T20:37:13;6.60;79.83
57709;SHT35;42558;52.388;13.390;2022-12-26T20:39:43;6.59;79.95